createdAt,value
2023-11-12T00:04:19.346Z,10.38
2023-11-12T00:09:20.891Z,10.43
2023-11-12T00:14:22.421Z,10.25
2023-11-12T00:19:24.864Z,9.52
2023-11-12T00:24:28.947Z,10.70
2023-11-12T00:29:30.496Z,8.70
2023-11-12T00:34:32.073Z,9.32
2023-11-12T00:39:33.665Z,8.25
2023-11-12T00:44:36.643Z,8.68
2023-11-12T00:49:38.129Z,8.45
2023-11-12T00:54:39.655Z,8.20
2023-11-12T00:59:41.250Z,7.53
2023-11-12T01:04:43.292Z,8.77
2023-11-12T01:09:47.376Z,8.38
2023-11-12T01:14:50.142Z,8.13
2023-11-12T01:19:51.718Z,9.07
2023-11-12T01:24:53.335Z,8.43
2023-11-12T01:29:54.918Z,8.20
2023-11-12T01:34:56.948Z,8.50
2023-11-12T01:39:58.735Z,7.85
2023-11-12T01:45:01.093Z,8.23
2023-11-12T01:50:04.654Z,7.75
2023-11-12T01:55:08.680Z,7.85
2023-11-12T02:00:17.098Z,7.82
2023-11-12T02:05:18.949Z,7.65
2023-11-12T02:10:20.495Z,7.65
2023-11-12T02:15:22.180Z,7.07
2023-11-12T02:20:23.736Z,6.90
2023-11-12T02:25:25.354Z,6.38
2023-11-12T02:30:27.330Z,6.40
2023-11-12T02:35:30.575Z,6.00
2023-11-12T02:40:32.273Z,6.00
2023-11-12T02:45:33.913Z,5.68
2023-11-12T02:50:36.744Z,6.03
2023-11-12T02:55:38.562Z,6.03
2023-11-12T03:00:40.194Z,5.85
2023-11-12T03:05:41.798Z,5.70
2023-11-12T03:10:43.585Z,5.43
2023-11-12T03:15:45.322Z,5.90
2023-11-12T03:20:47.332Z,5.57
2023-11-12T03:25:49.657Z,5.82
2023-11-12T03:30:51.334Z,5.78
2023-11-12T03:35:52.904Z,6.07
2023-11-12T03:40:54.380Z,5.70
2023-11-12T03:45:55.875Z,5.45
2023-11-12T03:50:57.399Z,5.82
2023-11-12T03:55:58.916Z,5.38
2023-11-12T04:01:01.226Z,5.70
2023-11-12T04:06:02.904Z,6.13
2023-11-12T04:11:04.629Z,5.95
2023-11-12T04:16:07.154Z,6.20
2023-11-12T04:21:09.357Z,6.32
2023-11-12T04:26:12.051Z,6.18
2023-11-12T04:31:13.641Z,6.03
2023-11-12T04:36:15.763Z,7.00
2023-11-12T04:41:18.414Z,6.60
2023-11-12T04:46:20.828Z,7.10
2023-11-12T04:51:22.375Z,7.22
2023-11-12T04:56:23.891Z,8.38
2023-11-12T05:01:25.570Z,8.30
2023-11-12T05:06:29.848Z,8.02
2023-11-12T05:11:31.466Z,8.63
2023-11-12T05:16:33.006Z,8.43
2023-11-12T05:21:34.602Z,8.15
2023-11-12T05:26:36.417Z,7.63
2023-11-12T05:31:38.044Z,7.28
2023-11-12T05:36:41.060Z,8.73
2023-11-12T05:41:42.732Z,7.65
2023-11-12T05:46:44.321Z,8.75
2023-11-12T05:51:46.129Z,7.90
2023-11-12T05:56:47.719Z,8.30
2023-11-12T06:01:49.341Z,7.18
2023-11-12T06:06:50.944Z,8.70
2023-11-12T06:11:54.947Z,9.13
2023-11-12T06:16:56.465Z,9.30
2023-11-12T06:21:58.340Z,9.80
2023-11-12T06:27:00.031Z,9.50
2023-11-12T06:32:01.584Z,11.23
2023-11-12T06:37:04.241Z,11.48
2023-11-12T06:42:06.150Z,10.00
2023-11-12T06:47:07.801Z,13.43
2023-11-12T06:52:09.568Z,14.63
2023-11-12T06:57:11.461Z,11.88
2023-11-12T07:02:13.035Z,10.43
2023-11-12T07:07:17.007Z,12.35
2023-11-12T07:12:18.947Z,9.88
2023-11-12T07:17:20.589Z,10.43
2023-11-12T07:22:22.598Z,10.15
2023-11-12T07:27:24.255Z,9.50
2023-11-12T07:32:26.760Z,11.43
2023-11-12T07:37:28.400Z,13.65
2023-11-12T07:42:29.948Z,12.55
2023-11-12T07:47:31.643Z,13.68
2023-11-12T07:52:33.396Z,12.55
2023-11-12T07:57:37.001Z,12.90
2023-11-12T08:02:40.373Z,14.23
2023-11-12T08:07:42.297Z,17.63
2023-11-12T08:12:44.290Z,16.10
2023-11-12T08:17:47.214Z,15.10
2023-11-12T08:22:48.903Z,16.45
2023-11-12T08:27:50.529Z,19.10
2023-11-12T08:32:52.458Z,18.27
2023-11-12T08:37:54.123Z,17.70
2023-11-12T08:42:55.771Z,16.63
2023-11-12T08:47:57.329Z,21.00
2023-11-12T08:53:00.895Z,23.80
2023-11-12T08:58:02.456Z,19.45
2023-11-12T09:03:04.107Z,17.58
2023-11-12T09:08:05.627Z,17.92
2023-11-12T09:13:07.148Z,16.77
2023-11-12T09:18:08.819Z,16.65
2023-11-12T09:23:10.815Z,17.50
2023-11-12T09:28:12.959Z,16.98
2023-11-12T09:33:15.310Z,15.80
2023-11-12T09:38:16.906Z,14.23
2023-11-12T09:43:18.857Z,14.20
2023-11-12T09:48:37.111Z,16.23
2023-11-12T09:53:45.712Z,14.73
2023-11-12T09:58:47.410Z,15.35
2023-11-12T10:03:52.791Z,14.40
2023-11-12T10:08:54.594Z,15.48
2023-11-12T10:13:57.486Z,14.55
2023-11-12T10:19:13.188Z,15.93
2023-11-12T10:24:14.743Z,15.75
2023-11-12T10:29:21.947Z,13.80
2023-11-12T10:34:26.979Z,14.15
2023-11-12T10:40:06.244Z,13.32
2023-11-12T10:45:08.410Z,14.68
2023-11-12T10:50:10.372Z,12.77
2023-11-12T10:55:15.816Z,11.98
2023-11-12T11:00:21.184Z,11.60
2023-11-12T11:05:25.126Z,11.48
2023-11-12T11:10:28.176Z,11.10
2023-11-12T11:15:41.273Z,10.35
2023-11-12T11:21:06.875Z,10.93
2023-11-12T11:26:34.133Z,11.43
2023-11-12T11:31:37.700Z,11.70
2023-11-12T11:36:41.091Z,10.05
2023-11-12T11:42:07.485Z,11.65
2023-11-12T11:47:16.285Z,12.20
2023-11-12T11:52:25.890Z,11.23
2023-11-12T11:57:28.574Z,12.25
2023-11-12T12:02:43.855Z,12.65
2023-11-12T12:07:47.550Z,11.77
2023-11-12T12:12:49.702Z,12.90
2023-11-12T12:17:51.467Z,12.23
2023-11-12T12:22:53.993Z,12.20
2023-11-12T12:27:55.634Z,12.70
2023-11-12T12:32:58.876Z,12.70
2023-11-12T12:38:08.218Z,11.48
2023-11-12T12:43:11.721Z,13.18
2023-11-12T12:48:13.588Z,12.55
2023-11-12T12:53:19.008Z,12.95
2023-11-12T12:58:20.657Z,12.77
2023-11-12T13:03:28.165Z,12.15
2023-11-12T13:08:30.225Z,12.25
2023-11-12T13:13:32.140Z,13.85
2023-11-12T13:18:33.682Z,12.52
2023-11-12T13:23:37.278Z,12.15
2023-11-12T13:28:39.234Z,14.48
2023-11-12T13:33:42.646Z,14.10
2023-11-12T13:38:44.454Z,10.20
2023-11-12T13:43:46.009Z,10.43
2023-11-12T13:48:47.936Z,10.40
2023-11-12T13:53:50.210Z,9.88
2023-11-12T13:58:54.038Z,10.25
2023-11-12T14:03:56.512Z,10.98
2023-11-12T14:08:58.159Z,10.93
2023-11-12T14:13:59.755Z,11.05
2023-11-12T14:19:01.469Z,11.10
2023-11-12T14:24:03.636Z,12.00
2023-11-12T14:29:05.366Z,12.63
2023-11-12T14:34:13.312Z,12.20
2023-11-12T14:39:19.528Z,13.13
2023-11-12T14:44:23.353Z,14.10
2023-11-12T14:49:27.210Z,12.93
2023-11-12T14:54:30.542Z,16.20
2023-11-12T14:59:32.554Z,18.13
2023-11-12T15:04:34.211Z,21.60
2023-11-12T15:09:35.868Z,22.88
2023-11-12T15:14:37.655Z,23.33
2023-11-12T15:19:42.185Z,22.13
2023-11-12T15:24:44.660Z,22.98
2023-11-12T15:29:46.880Z,22.50
2023-11-12T15:34:48.451Z,22.08
2023-11-12T15:39:50.894Z,20.30
2023-11-12T15:44:52.505Z,19.13
2023-11-12T15:49:54.000Z,17.58
2023-11-12T15:54:57.109Z,17.10
2023-11-12T15:59:58.688Z,17.40
2023-11-12T16:05:00.400Z,17.33
2023-11-12T16:10:02.945Z,16.63
2023-11-12T16:15:06.692Z,18.58
2023-11-12T16:20:09.827Z,17.83
2023-11-12T16:25:12.549Z,18.63
2023-11-12T16:30:14.285Z,17.52
2023-11-12T16:35:15.883Z,16.55
2023-11-12T16:40:20.963Z,18.80
2023-11-12T16:45:23.831Z,17.77
2023-11-12T16:50:26.397Z,18.50
2023-11-12T16:55:27.958Z,20.10
2023-11-12T17:00:30.301Z,22.25
2023-11-12T17:05:33.300Z,26.20
2023-11-12T17:10:35.250Z,23.20
2023-11-12T17:15:37.599Z,20.83
2023-11-12T17:20:39.606Z,22.35
2023-11-12T17:25:43.012Z,24.60
2023-11-12T17:30:44.667Z,26.02
2023-11-12T17:35:47.207Z,28.05
2023-11-12T17:40:48.756Z,25.50
2023-11-12T17:45:52.922Z,26.33
2023-11-12T17:50:54.746Z,26.17
2023-11-12T17:55:56.302Z,29.42
2023-11-12T18:01:01.540Z,28.63
2023-11-12T18:06:03.776Z,30.75
2023-11-12T18:11:05.487Z,34.03
2023-11-12T18:16:08.890Z,33.22
2023-11-12T18:21:15.545Z,34.90
2023-11-12T18:26:18.724Z,33.65
2023-11-12T18:31:24.536Z,29.45
2023-11-12T18:36:26.240Z,29.38
2023-11-12T18:41:27.857Z,29.70
2023-11-12T18:46:29.450Z,28.00
2023-11-12T18:51:33.247Z,27.17
2023-11-12T18:56:35.656Z,27.13
2023-11-12T19:01:37.449Z,26.27
2023-11-12T19:06:41.898Z,27.50
2023-11-12T19:11:43.876Z,27.45
2023-11-12T19:16:46.489Z,27.00
2023-11-12T19:21:48.464Z,28.25
2023-11-12T19:26:51.798Z,31.45
2023-11-12T19:31:53.739Z,30.50
2023-11-12T19:36:55.655Z,31.65
2023-11-12T19:41:57.709Z,29.73
2023-11-12T19:46:59.361Z,29.40
2023-11-12T19:52:01.339Z,28.67
2023-11-12T19:57:03.023Z,29.40
2023-11-12T20:02:05.637Z,30.65
2023-11-12T20:07:07.311Z,29.67
2023-11-12T20:12:09.180Z,27.48
2023-11-12T20:17:12.742Z,31.15
2023-11-12T20:22:18.688Z,23.65
2023-11-12T20:27:21.061Z,23.30
2023-11-12T20:32:22.737Z,22.02
2023-11-12T20:37:25.171Z,24.40
2023-11-12T20:42:26.725Z,24.05
2023-11-12T20:47:28.594Z,22.73
2023-11-12T20:52:32.345Z,22.40
2023-11-12T20:57:33.964Z,23.25
2023-11-12T21:02:36.307Z,26.20
2023-11-12T21:07:37.965Z,26.70
2023-11-12T21:12:40.028Z,22.13
2023-11-12T21:17:43.309Z,25.30
2023-11-12T21:22:45.040Z,25.35
2023-11-12T21:27:48.306Z,26.30
2023-11-12T21:32:50.058Z,32.78
2023-11-12T21:37:52.198Z,25.65
2023-11-12T21:42:53.829Z,24.50
2023-11-12T21:47:55.544Z,25.75
2023-11-12T21:52:59.266Z,26.80
2023-11-12T21:58:01.319Z,26.13
2023-11-12T22:03:03.069Z,27.52
2023-11-12T22:08:05.487Z,29.60
2023-11-12T22:13:07.032Z,29.20
2023-11-12T22:18:08.693Z,28.55
2023-11-12T22:23:12.083Z,27.80
2023-11-12T22:28:14.003Z,28.77
2023-11-12T22:33:15.617Z,28.25
2023-11-12T22:38:17.137Z,26.40
2023-11-12T22:43:18.666Z,27.95
2023-11-12T22:48:20.268Z,28.58
2023-11-12T22:53:21.808Z,29.17
2023-11-12T22:58:23.468Z,30.30
2023-11-12T23:03:25.873Z,29.52
2023-11-12T23:08:28.032Z,29.58
2023-11-12T23:13:30.263Z,31.70
2023-11-12T23:18:31.816Z,34.50
2023-11-12T23:23:33.586Z,33.05
2023-11-12T23:28:36.340Z,33.85
2023-11-12T23:33:38.225Z,31.95
2023-11-12T23:38:39.769Z,31.17
2023-11-12T23:43:41.323Z,31.40
2023-11-12T23:48:42.883Z,30.25
2023-11-12T23:53:46.803Z,28.75
2023-11-12T23:58:48.311Z,30.10
